Terminal Aerodrome Forecast
Issued by NWS Rapid City, SD

Home | Current Version | Previous Version | Graphics & Text | Print | Product List | Glossary On
Versions: 1 2 3 4 5 6 7 8 9 10 11 12 13
173
FTUS43 KUNR 171120
TAFRAP
TAF
KRAP 171120Z 1712/1812 29008KT P6SM FEW200
     FM171600 18012KT P6SM FEW200
     FM181000 30015G25KT P6SM SCT150=

USA.gov is the U.S. government's official web portal to all federal, state and local government web resources and services.